sensor_id;sensor_type;location;lat;lon;timestamp;temperature;humidity
38090;DHT22;23904;52.322;10.232;2023-02-28T00:00:25;2.10;99.90
38090;DHT22;23904;52.322;10.232;2023-02-28T00:02:51;2.00;99.90
38090;DHT22;23904;52.322;10.232;2023-02-28T00:05:22;1.90;99.90
38090;DHT22;23904;52.322;10.232;2023-02-28T00:07:49;1.90;99.90
38090;DHT22;23904;52.322;10.232;2023-02-28T00:10:20;1.90;99.90
38090;DHT22;23904;52.322;10.232;2023-02-28T00:12:51;1.90;99.90
38090;DHT22;23904;52.322;10.232;2023-02-28T00:15:17;1.80;99.90
38090;DHT22;23904;52.322;10.232;2023-02-28T00:17:44;1.80;99.90
38090;DHT22;23904;52.322;10.232;2023-02-28T00:20:11;1.80;99.90
38090;DHT22;23904;52.322;10.232;2023-02-28T00:22:44;1.70;99.90
38090;DHT22;23904;52.322;10.232;2023-02-28T00:25:13;1.80;99.90
38090;DHT22;23904;52.322;10.232;2023-02-28T00:27:41;1.80;99.90
38090;DHT22;23904;52.322;10.232;2023-02-28T00:30:15;1.80;99.90
38090;DHT22;23904;52.322;10.232;2023-02-28T00:32:41;1.60;99.90
38090;DHT22;23904;52.322;10.232;2023-02-28T00:35:08;1.50;99.90
38090;DHT22;23904;52.322;10.232;2023-02-28T00:37:34;1.50;99.90
38090;DHT22;23904;52.322;10.232;2023-02-28T00:40:00;1.40;99.90
38090;DHT22;23904;52.322;10.232;2023-02-28T00:42:27;1.40;99.90
38090;DHT22;23904;52.322;10.232;2023-02-28T00:44:53;1.30;99.90
38090;DHT22;23904;52.322;10.232;2023-02-28T00:47:19;1.30;99.90
38090;DHT22;23904;52.322;10.232;2023-02-28T00:49:44;1.30;99.90
38090;DHT22;23904;52.322;10.232;2023-02-28T00:52:10;1.30;99.90
38090;DHT22;23904;52.322;10.232;2023-02-28T00:54:36;1.20;99.90
38090;DHT22;23904;52.322;10.232;2023-02-28T00:57:01;1.10;99.90
38090;DHT22;23904;52.322;10.232;2023-02-28T00:59:27;1.10;99.90
38090;DHT22;23904;52.322;10.232;2023-02-28T01:01:52;1.00;99.90
38090;DHT22;23904;52.322;10.232;2023-02-28T01:04:18;0.90;99.90
38090;DHT22;23904;52.322;10.232;2023-02-28T01:06:43;0.90;99.90
38090;DHT22;23904;52.322;10.232;2023-02-28T01:09:09;0.90;99.90
38090;DHT22;23904;52.322;10.232;2023-02-28T01:11:35;0.90;99.90
38090;DHT22;23904;52.322;10.232;2023-02-28T01:14:01;0.80;99.90
38090;DHT22;23904;52.322;10.232;2023-02-28T01:16:28;0.90;99.90
38090;DHT22;23904;52.322;10.232;2023-02-28T01:18:54;0.90;99.90
38090;DHT22;23904;52.322;10.232;2023-02-28T01:21:21;0.90;99.90
38090;DHT22;23904;52.322;10.232;2023-02-28T01:23:47;0.90;99.90
38090;DHT22;23904;52.322;10.232;2023-02-28T01:26:19;0.80;99.90
38090;DHT22;23904;52.322;10.232;2023-02-28T01:28:46;0.70;99.90
38090;DHT22;23904;52.322;10.232;2023-02-28T01:31:12;0.60;99.90
38090;DHT22;23904;52.322;10.232;2023-02-28T01:33:39;0.60;99.90
38090;DHT22;23904;52.322;10.232;2023-02-28T01:36:10;0.60;99.90
38090;DHT22;23904;52.322;10.232;2023-02-28T01:38:37;0.60;99.90
38090;DHT22;23904;52.322;10.232;2023-02-28T01:41:03;0.60;99.90
38090;DHT22;23904;52.322;10.232;2023-02-28T01:43:32;0.60;99.90
38090;DHT22;23904;52.322;10.232;2023-02-28T01:46:10;0.60;99.90
38090;DHT22;23904;52.322;10.232;2023-02-28T01:48:53;0.60;99.90
38090;DHT22;23904;52.322;10.232;2023-02-28T01:51:37;0.50;99.90
38090;DHT22;23904;52.322;10.232;2023-02-28T01:54:31;0.40;99.90
38090;DHT22;23904;52.322;10.232;2023-02-28T01:57:05;0.40;99.90
38090;DHT22;23904;52.322;10.232;2023-02-28T01:59:38;0.40;99.90
38090;DHT22;23904;52.322;10.232;2023-02-28T02:02:15;0.40;99.90
38090;DHT22;23904;52.322;10.232;2023-02-28T02:04:50;0.30;99.90
38090;DHT22;23904;52.322;10.232;2023-02-28T02:07:19;0.30;99.90
38090;DHT22;23904;52.322;10.232;2023-02-28T02:09:45;0.30;99.90
38090;DHT22;23904;52.322;10.232;2023-02-28T02:15:16;0.30;99.90
38090;DHT22;23904;52.322;10.232;2023-02-28T02:17:55;0.20;99.90
38090;DHT22;23904;52.322;10.232;2023-02-28T02:27:17;0.10;99.90
38090;DHT22;23904;52.322;10.232;2023-02-28T02:30:14;0.20;99.90
38090;DHT22;23904;52.322;10.232;2023-02-28T02:33:06;0.10;99.90
38090;DHT22;23904;52.322;10.232;2023-02-28T02:35:49;0.10;99.90
38090;DHT22;23904;52.322;10.232;2023-02-28T02:41:28;0.10;99.90
38090;DHT22;23904;52.322;10.232;2023-02-28T02:44:12;0.10;99.90
38090;DHT22;23904;52.322;10.232;2023-02-28T02:46:44;0.10;99.90
38090;DHT22;23904;52.322;10.232;2023-02-28T02:49:14;0.00;99.90
38090;DHT22;23904;52.322;10.232;2023-02-28T02:51:42;0.00;99.90
38090;DHT22;23904;52.322;10.232;2023-02-28T02:54:13;-0.10;99.90
38090;DHT22;23904;52.322;10.232;2023-02-28T02:56:44;-0.10;99.90
38090;DHT22;23904;52.322;10.232;2023-02-28T02:59:14;0.00;99.90
38090;DHT22;23904;52.322;10.232;2023-02-28T03:01:52;0.00;99.90
38090;DHT22;23904;52.322;10.232;2023-02-28T03:04:21;0.00;99.90
38090;DHT22;23904;52.322;10.232;2023-02-28T03:06:48;0.10;99.90
38090;DHT22;23904;52.322;10.232;2023-02-28T03:09:21;0.10;99.90
38090;DHT22;23904;52.322;10.232;2023-02-28T03:11:48;0.10;99.90
38090;DHT22;23904;52.322;10.232;2023-02-28T03:14:38;0.10;99.90
38090;DHT22;23904;52.322;10.232;2023-02-28T03:17:44;0.20;99.90
38090;DHT22;23904;52.322;10.232;2023-02-28T03:20:35;0.20;99.90
38090;DHT22;23904;52.322;10.232;2023-02-28T03:23:16;0.30;99.90
38090;DHT22;23904;52.322;10.232;2023-02-28T03:25:57;0.40;99.90
38090;DHT22;23904;52.322;10.232;2023-02-28T03:28:41;0.30;99.90
38090;DHT22;23904;52.322;10.232;2023-02-28T03:31:22;0.30;99.90
38090;DHT22;23904;52.322;10.232;2023-02-28T03:36:30;0.40;99.90
38090;DHT22;23904;52.322;10.232;2023-02-28T03:39:05;0.40;99.90
38090;DHT22;23904;52.322;10.232;2023-02-28T03:41:42;0.40;99.90
38090;DHT22;23904;52.322;10.232;2023-02-28T03:44:22;0.40;99.90
38090;DHT22;23904;52.322;10.232;2023-02-28T03:47:00;0.60;99.90
38090;DHT22;23904;52.322;10.232;2023-02-28T03:49:40;0.60;99.90
38090;DHT22;23904;52.322;10.232;2023-02-28T03:52:09;0.60;99.90
38090;DHT22;23904;52.322;10.232;2023-02-28T03:54:41;0.60;99.90
38090;DHT22;23904;52.322;10.232;2023-02-28T03:57:43;0.50;99.90
38090;DHT22;23904;52.322;10.232;2023-02-28T04:00:32;0.50;99.90
38090;DHT22;23904;52.322;10.232;2023-02-28T04:03:00;0.50;99.90
38090;DHT22;23904;52.322;10.232;2023-02-28T04:05:26;0.50;99.90
38090;DHT22;23904;52.322;10.232;2023-02-28T04:07:53;0.40;99.90
38090;DHT22;23904;52.322;10.232;2023-02-28T04:10:19;0.40;99.90
38090;DHT22;23904;52.322;10.232;2023-02-28T04:12:45;0.50;99.90
38090;DHT22;23904;52.322;10.232;2023-02-28T04:15:10;0.50;99.90
38090;DHT22;23904;52.322;10.232;2023-02-28T04:17:36;0.50;99.90
38090;DHT22;23904;52.322;10.232;2023-02-28T04:20:03;0.50;99.90
38090;DHT22;23904;52.322;10.232;2023-02-28T04:22:34;0.40;99.90
38090;DHT22;23904;52.322;10.232;2023-02-28T04:25:00;0.40;99.90
38090;DHT22;23904;52.322;10.232;2023-02-28T04:27:25;0.30;99.90
38090;DHT22;23904;52.322;10.232;2023-02-28T04:29:51;0.30;99.90
38090;DHT22;23904;52.322;10.232;2023-02-28T04:32:16;0.30;99.90
38090;DHT22;23904;52.322;10.232;2023-02-28T04:34:42;0.30;99.90
38090;DHT22;23904;52.322;10.232;2023-02-28T04:37:07;0.40;99.90
38090;DHT22;23904;52.322;10.232;2023-02-28T04:39:36;0.30;99.90
38090;DHT22;23904;52.322;10.232;2023-02-28T04:42:02;0.00;99.90
38090;DHT22;23904;52.322;10.232;2023-02-28T04:44:28;0.00;99.90
38090;DHT22;23904;52.322;10.232;2023-02-28T04:46:53;0.00;99.90
38090;DHT22;23904;52.322;10.232;2023-02-28T04:49:19;0.00;99.90
38090;DHT22;23904;52.322;10.232;2023-02-28T04:51:44;0.00;99.90
38090;DHT22;23904;52.322;10.232;2023-02-28T04:54:10;0.00;99.90
38090;DHT22;23904;52.322;10.232;2023-02-28T04:56:36;0.00;99.90
38090;DHT22;23904;52.322;10.232;2023-02-28T04:59:01;0.00;99.90
38090;DHT22;23904;52.322;10.232;2023-02-28T05:01:29;0.00;99.90
38090;DHT22;23904;52.322;10.232;2023-02-28T05:04:00;0.00;99.90
38090;DHT22;23904;52.322;10.232;2023-02-28T05:06:30;0.00;99.90
38090;DHT22;23904;52.322;10.232;2023-02-28T05:08:56;0.00;99.90
38090;DHT22;23904;52.322;10.232;2023-02-28T05:11:31;0.00;99.90
38090;DHT22;23904;52.322;10.232;2023-02-28T05:14:06;0.00;99.90
38090;DHT22;23904;52.322;10.232;2023-02-28T05:16:35;0.00;99.90
38090;DHT22;23904;52.322;10.232;2023-02-28T05:19:00;0.00;99.90
38090;DHT22;23904;52.322;10.232;2023-02-28T05:21:33;0.00;99.90
38090;DHT22;23904;52.322;10.232;2023-02-28T05:24:03;0.00;99.90
38090;DHT22;23904;52.322;10.232;2023-02-28T05:26:30;0.00;99.90
38090;DHT22;23904;52.322;10.232;2023-02-28T05:28:56;-0.10;99.90
38090;DHT22;23904;52.322;10.232;2023-02-28T05:31:22;-0.20;99.90
38090;DHT22;23904;52.322;10.232;2023-02-28T05:33:48;-0.20;99.90
38090;DHT22;23904;52.322;10.232;2023-02-28T05:36:14;-0.30;99.90
38090;DHT22;23904;52.322;10.232;2023-02-28T05:38:39;-0.30;99.90
38090;DHT22;23904;52.322;10.232;2023-02-28T05:41:09;-0.30;99.90
38090;DHT22;23904;52.322;10.232;2023-02-28T05:43:36;-0.30;99.90
38090;DHT22;23904;52.322;10.232;2023-02-28T05:46:03;-0.40;99.90
38090;DHT22;23904;52.322;10.232;2023-02-28T05:48:34;-0.40;99.90
38090;DHT22;23904;52.322;10.232;2023-02-28T05:51:02;-0.30;99.90
38090;DHT22;23904;52.322;10.232;2023-02-28T05:53:29;-0.50;99.90
38090;DHT22;23904;52.322;10.232;2023-02-28T05:55:54;-0.50;99.90
38090;DHT22;23904;52.322;10.232;2023-02-28T05:58:21;-0.60;99.90
38090;DHT22;23904;52.322;10.232;2023-02-28T06:00:47;-0.60;99.90
38090;DHT22;23904;52.322;10.232;2023-02-28T06:03:13;-0.60;99.90
38090;DHT22;23904;52.322;10.232;2023-02-28T06:05:39;-0.60;99.90
38090;DHT22;23904;52.322;10.232;2023-02-28T06:08:05;-0.60;99.90
38090;DHT22;23904;52.322;10.232;2023-02-28T06:10:33;-0.50;99.90
38090;DHT22;23904;52.322;10.232;2023-02-28T06:13:03;-0.50;99.90
38090;DHT22;23904;52.322;10.232;2023-02-28T06:15:29;-0.40;99.90
38090;DHT22;23904;52.322;10.232;2023-02-28T06:17:54;-0.40;99.90
38090;DHT22;23904;52.322;10.232;2023-02-28T06:20:22;-0.40;99.90
38090;DHT22;23904;52.322;10.232;2023-02-28T06:22:48;-0.40;99.90
38090;DHT22;23904;52.322;10.232;2023-02-28T06:25:15;-0.50;99.90
38090;DHT22;23904;52.322;10.232;2023-02-28T06:27:41;-0.50;99.90
38090;DHT22;23904;52.322;10.232;2023-02-28T06:30:07;-0.50;99.90
38090;DHT22;23904;52.322;10.232;2023-02-28T06:32:33;-0.50;99.90
38090;DHT22;23904;52.322;10.232;2023-02-28T06:34:58;-0.40;99.90
38090;DHT22;23904;52.322;10.232;2023-02-28T06:37:24;-0.30;99.90
38090;DHT22;23904;52.322;10.232;2023-02-28T06:39:54;-0.30;99.90
38090;DHT22;23904;52.322;10.232;2023-02-28T06:42:22;-0.30;99.90
38090;DHT22;23904;52.322;10.232;2023-02-28T06:44:51;-0.20;99.90
38090;DHT22;23904;52.322;10.232;2023-02-28T06:47:16;-0.20;99.90
38090;DHT22;23904;52.322;10.232;2023-02-28T06:49:42;-0.20;99.90
38090;DHT22;23904;52.322;10.232;2023-02-28T06:52:08;-0.30;99.90
38090;DHT22;23904;52.322;10.232;2023-02-28T06:54:36;-0.30;99.90
38090;DHT22;23904;52.322;10.232;2023-02-28T06:57:02;-0.20;99.90
38090;DHT22;23904;52.322;10.232;2023-02-28T06:59:28;-0.20;99.90
38090;DHT22;23904;52.322;10.232;2023-02-28T07:01:53;-0.10;99.90
38090;DHT22;23904;52.322;10.232;2023-02-28T07:04:20;0.10;99.90
38090;DHT22;23904;52.322;10.232;2023-02-28T07:06:46;0.10;99.90
38090;DHT22;23904;52.322;10.232;2023-02-28T07:09:12;0.10;99.90
38090;DHT22;23904;52.322;10.232;2023-02-28T07:11:38;0.20;99.90
38090;DHT22;23904;52.322;10.232;2023-02-28T07:14:03;0.20;99.90
38090;DHT22;23904;52.322;10.232;2023-02-28T07:16:29;0.20;99.90
38090;DHT22;23904;52.322;10.232;2023-02-28T07:18:55;0.30;99.90
38090;DHT22;23904;52.322;10.232;2023-02-28T07:21:21;0.40;99.90
38090;DHT22;23904;52.322;10.232;2023-02-28T07:23:46;0.40;99.90
38090;DHT22;23904;52.322;10.232;2023-02-28T07:26:14;0.40;99.90
38090;DHT22;23904;52.322;10.232;2023-02-28T07:28:43;0.40;99.90
38090;DHT22;23904;52.322;10.232;2023-02-28T07:31:10;0.50;99.90
38090;DHT22;23904;52.322;10.232;2023-02-28T07:33:36;0.90;99.90
38090;DHT22;23904;52.322;10.232;2023-02-28T07:36:07;1.00;99.90
38090;DHT22;23904;52.322;10.232;2023-02-28T07:38:39;1.30;99.90
38090;DHT22;23904;52.322;10.232;2023-02-28T07:41:04;1.60;99.90
38090;DHT22;23904;52.322;10.232;2023-02-28T07:43:33;2.00;99.90
38090;DHT22;23904;52.322;10.232;2023-02-28T07:46:04;2.40;99.90
38090;DHT22;23904;52.322;10.232;2023-02-28T07:48:30;2.90;99.90
38090;DHT22;23904;52.322;10.232;2023-02-28T07:50:56;3.20;99.90
38090;DHT22;23904;52.322;10.232;2023-02-28T07:53:23;3.40;99.90
38090;DHT22;23904;52.322;10.232;2023-02-28T07:55:49;3.60;99.90
38090;DHT22;23904;52.322;10.232;2023-02-28T07:58:14;4.30;99.90
38090;DHT22;23904;52.322;10.232;2023-02-28T08:00:40;4.80;99.90
38090;DHT22;23904;52.322;10.232;2023-02-28T08:03:05;4.50;99.90
38090;DHT22;23904;52.322;10.232;2023-02-28T08:05:31;3.90;99.90
38090;DHT22;23904;52.322;10.232;2023-02-28T08:07:57;3.60;99.90
38090;DHT22;23904;52.322;10.232;2023-02-28T08:10:23;3.10;99.90
38090;DHT22;23904;52.322;10.232;2023-02-28T08:12:49;2.80;99.90
38090;DHT22;23904;52.322;10.232;2023-02-28T08:15:15;2.60;99.90
38090;DHT22;23904;52.322;10.232;2023-02-28T08:17:41;2.30;99.90
38090;DHT22;23904;52.322;10.232;2023-02-28T08:20:07;2.30;99.90
38090;DHT22;23904;52.322;10.232;2023-02-28T08:22:33;2.10;99.90
38090;DHT22;23904;52.322;10.232;2023-02-28T08:24:58;2.10;99.90
38090;DHT22;23904;52.322;10.232;2023-02-28T08:27:24;2.10;99.90
38090;DHT22;23904;52.322;10.232;2023-02-28T08:29:49;2.10;99.90
38090;DHT22;23904;52.322;10.232;2023-02-28T08:32:15;2.10;99.90
38090;DHT22;23904;52.322;10.232;2023-02-28T08:34:40;2.00;99.90
38090;DHT22;23904;52.322;10.232;2023-02-28T08:37:06;2.10;99.90
38090;DHT22;23904;52.322;10.232;2023-02-28T08:39:34;2.20;99.90
38090;DHT22;23904;52.322;10.232;2023-02-28T08:42:01;2.20;99.90
38090;DHT22;23904;52.322;10.232;2023-02-28T08:44:28;2.30;99.90
38090;DHT22;23904;52.322;10.232;2023-02-28T08:46:54;2.40;99.90
38090;DHT22;23904;52.322;10.232;2023-02-28T08:49:19;2.50;99.90
38090;DHT22;23904;52.322;10.232;2023-02-28T08:51:45;2.50;99.90
38090;DHT22;23904;52.322;10.232;2023-02-28T08:54:10;2.50;99.90
38090;DHT22;23904;52.322;10.232;2023-02-28T08:56:38;2.50;99.90
38090;DHT22;23904;52.322;10.232;2023-02-28T08:59:03;2.60;99.90
38090;DHT22;23904;52.322;10.232;2023-02-28T09:01:30;2.70;99.90
38090;DHT22;23904;52.322;10.232;2023-02-28T09:03:57;2.70;99.90
38090;DHT22;23904;52.322;10.232;2023-02-28T09:06:26;2.70;99.90
38090;DHT22;23904;52.322;10.232;2023-02-28T09:08:52;2.80;99.90
38090;DHT22;23904;52.322;10.232;2023-02-28T09:11:18;2.80;99.90
38090;DHT22;23904;52.322;10.232;2023-02-28T09:13:45;3.10;99.90
38090;DHT22;23904;52.322;10.232;2023-02-28T09:16:13;3.50;99.90
38090;DHT22;23904;52.322;10.232;2023-02-28T09:18:40;3.80;99.90
38090;DHT22;23904;52.322;10.232;2023-02-28T09:21:13;4.30;99.90
38090;DHT22;23904;52.322;10.232;2023-02-28T09:23:42;5.10;99.90
38090;DHT22;23904;52.322;10.232;2023-02-28T09:26:23;7.10;99.90
38090;DHT22;23904;52.322;10.232;2023-02-28T09:28:51;8.50;96.90
38090;DHT22;23904;52.322;10.232;2023-02-28T09:31:20;10.60;90.10
38090;DHT22;23904;52.322;10.232;2023-02-28T09:33:53;10.40;90.20
38090;DHT22;23904;52.322;10.232;2023-02-28T09:36:22;11.50;82.60
38090;DHT22;23904;52.322;10.232;2023-02-28T09:38:48;11.60;82.30
38090;DHT22;23904;52.322;10.232;2023-02-28T09:41:23;12.90;81.10
38090;DHT22;23904;52.322;10.232;2023-02-28T09:43:55;14.20;73.30
38090;DHT22;23904;52.322;10.232;2023-02-28T09:46:48;15.60;64.50
38090;DHT22;23904;52.322;10.232;2023-02-28T09:49:21;16.00;61.30
38090;DHT22;23904;52.322;10.232;2023-02-28T09:51:58;16.10;60.80
38090;DHT22;23904;52.322;10.232;2023-02-28T09:54:29;16.00;59.60
38090;DHT22;23904;52.322;10.232;2023-02-28T09:59:49;15.10;61.60
38090;DHT22;23904;52.322;10.232;2023-02-28T10:05:22;14.40;63.70
38090;DHT22;23904;52.322;10.232;2023-02-28T10:08:01;14.90;61.60
38090;DHT22;23904;52.322;10.232;2023-02-28T10:10:48;15.10;61.70
38090;DHT22;23904;52.322;10.232;2023-02-28T10:16:39;16.20;59.00
38090;DHT22;23904;52.322;10.232;2023-02-28T10:19:32;17.80;55.40
38090;DHT22;23904;52.322;10.232;2023-02-28T10:22:09;18.60;51.50
38090;DHT22;23904;52.322;10.232;2023-02-28T10:24:53;18.90;50.40
38090;DHT22;23904;52.322;10.232;2023-02-28T10:27:24;19.30;48.80
38090;DHT22;23904;52.322;10.232;2023-02-28T10:29:57;19.00;48.40
38090;DHT22;23904;52.322;10.232;2023-02-28T10:32:34;19.40;44.00
38090;DHT22;23904;52.322;10.232;2023-02-28T10:35:19;17.60;43.90
38090;DHT22;23904;52.322;10.232;2023-02-28T10:37:55;16.20;47.20
38090;DHT22;23904;52.322;10.232;2023-02-28T10:43:02;17.50;47.30
38090;DHT22;23904;52.322;10.232;2023-02-28T10:45:59;17.60;44.10
38090;DHT22;23904;52.322;10.232;2023-02-28T10:48:33;16.50;45.40
38090;DHT22;23904;52.322;10.232;2023-02-28T10:51:02;16.60;45.20
38090;DHT22;23904;52.322;10.232;2023-02-28T10:53:49;17.20;46.00
38090;DHT22;23904;52.322;10.232;2023-02-28T10:56:19;17.80;46.30
38090;DHT22;23904;52.322;10.232;2023-02-28T11:01:44;18.80;39.10
38090;DHT22;23904;52.322;10.232;2023-02-28T11:04:33;18.60;39.50
38090;DHT22;23904;52.322;10.232;2023-02-28T11:07:16;17.70;40.70
38090;DHT22;23904;52.322;10.232;2023-02-28T11:09:49;17.50;42.20
38090;DHT22;23904;52.322;10.232;2023-02-28T11:12:39;17.40;41.00
38090;DHT22;23904;52.322;10.232;2023-02-28T11:15:25;15.30;42.20
38090;DHT22;23904;52.322;10.232;2023-02-28T11:18:00;14.20;45.80
38090;DHT22;23904;52.322;10.232;2023-02-28T11:20:52;13.60;47.80
38090;DHT22;23904;52.322;10.232;2023-02-28T11:23:19;13.10;50.20
38090;DHT22;23904;52.322;10.232;2023-02-28T11:25:51;13.10;50.60
38090;DHT22;23904;52.322;10.232;2023-02-28T11:28:31;13.20;49.50
38090;DHT22;23904;52.322;10.232;2023-02-28T11:31:20;13.70;49.30
38090;DHT22;23904;52.322;10.232;2023-02-28T11:33:54;13.70;48.30
38090;DHT22;23904;52.322;10.232;2023-02-28T11:36:23;12.50;51.80
38090;DHT22;23904;52.322;10.232;2023-02-28T11:38:53;11.40;53.10
38090;DHT22;23904;52.322;10.232;2023-02-28T11:44:27;9.70;57.60
38090;DHT22;23904;52.322;10.232;2023-02-28T11:47:03;9.30;60.00
38090;DHT22;23904;52.322;10.232;2023-02-28T11:49:31;9.00;59.90
38090;DHT22;23904;52.322;10.232;2023-02-28T11:52:40;9.00;61.50
38090;DHT22;23904;52.322;10.232;2023-02-28T12:04:40;9.90;58.30
38090;DHT22;23904;52.322;10.232;2023-02-28T12:10:20;8.60;62.40
38090;DHT22;23904;52.322;10.232;2023-02-28T12:13:03;8.20;64.60
38090;DHT22;23904;52.322;10.232;2023-02-28T12:19:20;8.00;66.80
38090;DHT22;23904;52.322;10.232;2023-02-28T12:25:30;10.00;61.20
38090;DHT22;23904;52.322;10.232;2023-02-28T12:28:09;11.10;57.90
38090;DHT22;23904;52.322;10.232;2023-02-28T12:30:41;12.40;55.00
38090;DHT22;23904;52.322;10.232;2023-02-28T12:33:14;13.60;52.30
38090;DHT22;23904;52.322;10.232;2023-02-28T12:35:55;13.50;51.40
38090;DHT22;23904;52.322;10.232;2023-02-28T12:38:42;13.20;51.90
38090;DHT22;23904;52.322;10.232;2023-02-28T12:41:22;12.80;52.70
38090;DHT22;23904;52.322;10.232;2023-02-28T12:44:27;12.70;51.60
38090;DHT22;23904;52.322;10.232;2023-02-28T12:47:00;12.20;52.70
38090;DHT22;23904;52.322;10.232;2023-02-28T12:49:49;11.90;53.40
38090;DHT22;23904;52.322;10.232;2023-02-28T12:52:23;12.20;53.30
38090;DHT22;23904;52.322;10.232;2023-02-28T12:55:03;12.20;53.50
38090;DHT22;23904;52.322;10.232;2023-02-28T12:57:48;11.80;53.20
38090;DHT22;23904;52.322;10.232;2023-02-28T13:00:23;10.70;54.60
38090;DHT22;23904;52.322;10.232;2023-02-28T13:03:34;9.90;57.20
38090;DHT22;23904;52.322;10.232;2023-02-28T13:06:17;9.20;60.10
38090;DHT22;23904;52.322;10.232;2023-02-28T13:09:01;9.10;62.20
38090;DHT22;23904;52.322;10.232;2023-02-28T13:11:34;9.20;62.10
38090;DHT22;23904;52.322;10.232;2023-02-28T13:14:16;9.70;61.10
38090;DHT22;23904;52.322;10.232;2023-02-28T13:17:01;9.80;58.70
38090;DHT22;23904;52.322;10.232;2023-02-28T13:19:41;10.20;58.90
38090;DHT22;23904;52.322;10.232;2023-02-28T13:27:52;11.30;58.50
38090;DHT22;23904;52.322;10.232;2023-02-28T13:33:27;13.10;54.10
38090;DHT22;23904;52.322;10.232;2023-02-28T13:38:43;15.20;49.60
38090;DHT22;23904;52.322;10.232;2023-02-28T13:46:28;14.40;48.60
38090;DHT22;23904;52.322;10.232;2023-02-28T13:48:54;14.10;48.10
38090;DHT22;23904;52.322;10.232;2023-02-28T13:51:39;13.20;49.90
38090;DHT22;23904;52.322;10.232;2023-02-28T13:54:31;12.10;53.00
38090;DHT22;23904;52.322;10.232;2023-02-28T14:03:36;11.40;54.30
38090;DHT22;23904;52.322;10.232;2023-02-28T14:11:52;9.60;58.50
38090;DHT22;23904;52.322;10.232;2023-02-28T14:17:07;9.70;59.80
38090;DHT22;23904;52.322;10.232;2023-02-28T14:19:37;9.40;59.90
38090;DHT22;23904;52.322;10.232;2023-02-28T14:22:13;8.60;63.20
38090;DHT22;23904;52.322;10.232;2023-02-28T14:25:16;8.50;63.80
38090;DHT22;23904;52.322;10.232;2023-02-28T14:31:32;8.10;64.80
38090;DHT22;23904;52.322;10.232;2023-02-28T14:36:53;7.80;67.00
38090;DHT22;23904;52.322;10.232;2023-02-28T14:39:24;7.90;66.00
38090;DHT22;23904;52.322;10.232;2023-02-28T14:41:51;7.70;66.90
38090;DHT22;23904;52.322;10.232;2023-02-28T14:46:50;7.60;66.90
38090;DHT22;23904;52.322;10.232;2023-02-28T14:49:27;7.40;69.40
38090;DHT22;23904;52.322;10.232;2023-02-28T14:52:20;7.30;65.70
38090;DHT22;23904;52.322;10.232;2023-02-28T14:54:55;7.10;65.40
38090;DHT22;23904;52.322;10.232;2023-02-28T15:00:14;6.80;68.30
38090;DHT22;23904;52.322;10.232;2023-02-28T15:02:41;6.90;67.50
38090;DHT22;23904;52.322;10.232;2023-02-28T15:07:43;6.80;67.40
38090;DHT22;23904;52.322;10.232;2023-02-28T15:12:41;6.60;70.20
38090;DHT22;23904;52.322;10.232;2023-02-28T15:15:15;6.70;70.00
38090;DHT22;23904;52.322;10.232;2023-02-28T15:17:45;6.80;68.80
38090;DHT22;23904;52.322;10.232;2023-02-28T15:20:13;6.80;67.60
38090;DHT22;23904;52.322;10.232;2023-02-28T15:22:41;6.70;68.10
38090;DHT22;23904;52.322;10.232;2023-02-28T15:25:09;6.80;66.80
38090;DHT22;23904;52.322;10.232;2023-02-28T15:27:44;6.80;67.40
38090;DHT22;23904;52.322;10.232;2023-02-28T15:30:29;6.70;67.70
38090;DHT22;23904;52.322;10.232;2023-02-28T15:33:05;6.50;68.30
38090;DHT22;23904;52.322;10.232;2023-02-28T15:35:40;6.50;68.80
38090;DHT22;23904;52.322;10.232;2023-02-28T15:38:18;6.50;67.70
38090;DHT22;23904;52.322;10.232;2023-02-28T15:41:02;6.50;67.90
38090;DHT22;23904;52.322;10.232;2023-02-28T15:43:35;6.50;67.50
38090;DHT22;23904;52.322;10.232;2023-02-28T15:46:12;6.40;68.10
38090;DHT22;23904;52.322;10.232;2023-02-28T15:48:43;6.40;68.40
38090;DHT22;23904;52.322;10.232;2023-02-28T15:51:22;6.40;69.60
38090;DHT22;23904;52.322;10.232;2023-02-28T15:56:33;6.30;69.30
38090;DHT22;23904;52.322;10.232;2023-02-28T15:59:15;6.30;69.50
38090;DHT22;23904;52.322;10.232;2023-02-28T16:01:44;6.30;70.00
38090;DHT22;23904;52.322;10.232;2023-02-28T16:04:19;6.30;69.50
38090;DHT22;23904;52.322;10.232;2023-02-28T16:06:53;6.20;69.80
38090;DHT22;23904;52.322;10.232;2023-02-28T16:09:26;6.20;71.10
38090;DHT22;23904;52.322;10.232;2023-02-28T16:11:55;6.10;72.50
38090;DHT22;23904;52.322;10.232;2023-02-28T16:14:23;6.00;73.50
38090;DHT22;23904;52.322;10.232;2023-02-28T16:16:55;6.00;75.20
38090;DHT22;23904;52.322;10.232;2023-02-28T16:19:23;6.00;74.00
38090;DHT22;23904;52.322;10.232;2023-02-28T16:21:49;6.00;73.00
38090;DHT22;23904;52.322;10.232;2023-02-28T16:24:15;6.10;72.30
38090;DHT22;23904;52.322;10.232;2023-02-28T16:26:42;5.90;73.60
38090;DHT22;23904;52.322;10.232;2023-02-28T16:29:17;5.90;74.30
38090;DHT22;23904;52.322;10.232;2023-02-28T16:31:47;5.80;74.80
38090;DHT22;23904;52.322;10.232;2023-02-28T16:34:12;5.80;75.00
38090;DHT22;23904;52.322;10.232;2023-02-28T16:36:38;5.80;76.00
38090;DHT22;23904;52.322;10.232;2023-02-28T16:39:03;5.80;76.10
38090;DHT22;23904;52.322;10.232;2023-02-28T16:41:30;5.70;76.90
38090;DHT22;23904;52.322;10.232;2023-02-28T16:43:56;5.70;77.70
38090;DHT22;23904;52.322;10.232;2023-02-28T16:46:29;5.60;78.40
38090;DHT22;23904;52.322;10.232;2023-02-28T16:48:57;5.50;80.00
38090;DHT22;23904;52.322;10.232;2023-02-28T16:51:22;5.50;80.50
38090;DHT22;23904;52.322;10.232;2023-02-28T16:53:48;5.40;81.70
38090;DHT22;23904;52.322;10.232;2023-02-28T16:56:24;5.40;83.00
38090;DHT22;23904;52.322;10.232;2023-02-28T16:58:50;5.20;84.10
38090;DHT22;23904;52.322;10.232;2023-02-28T17:01:17;5.20;84.40
38090;DHT22;23904;52.322;10.232;2023-02-28T17:03:47;5.10;85.60
38090;DHT22;23904;52.322;10.232;2023-02-28T17:06:40;5.10;86.50
38090;DHT22;23904;52.322;10.232;2023-02-28T17:09:13;5.00;86.60
38090;DHT22;23904;52.322;10.232;2023-02-28T17:11:41;4.90;88.50
38090;DHT22;23904;52.322;10.232;2023-02-28T17:14:07;4.90;90.00
38090;DHT22;23904;52.322;10.232;2023-02-28T17:16:33;4.80;90.80
38090;DHT22;23904;52.322;10.232;2023-02-28T17:19:03;4.80;91.10
38090;DHT22;23904;52.322;10.232;2023-02-28T17:21:30;4.70;91.70
38090;DHT22;23904;52.322;10.232;2023-02-28T17:23:57;4.70;92.00
38090;DHT22;23904;52.322;10.232;2023-02-28T17:26:23;4.60;92.10
38090;DHT22;23904;52.322;10.232;2023-02-28T17:28:53;4.60;92.50
38090;DHT22;23904;52.322;10.232;2023-02-28T17:31:21;4.70;92.00
38090;DHT22;23904;52.322;10.232;2023-02-28T17:33:48;4.60;92.70
38090;DHT22;23904;52.322;10.232;2023-02-28T17:36:21;4.50;93.10
38090;DHT22;23904;52.322;10.232;2023-02-28T17:38:48;4.50;93.30